Time;durP1;ratioP1;P1;durP2;ratioP2;P2;SDS_P1;SDS_P2;PMS_P1;PMS_P2;Temp;Humidity;BMP_temperature;BMP_pressure;BME280_temperature;BME280_humidity;BME280_pressure;Samples;Min_cycle;Max_cycle;Signal;HPM_P1;HPM_P2
2022/10/09 00:01:17;;;;;;;1999.90;999.90;;;12.30;99.90;;;;;;5054324;28;20027;-72
2022/10/09 00:03:44;;;;;;;1999.90;999.90;;;12.30;99.90;;;;;;5054194;28;20032;-78
2022/10/09 00:06:13;;;;;;;1999.90;999.90;;;12.30;99.90;;;;;;5054081;28;20104;-79
2022/10/09 00:08:40;;;;;;;1999.90;999.90;;;12.30;99.90;;;;;;5054100;28;20025;-72
2022/10/09 00:11:07;;;;;;;1999.90;999.90;;;12.30;99.90;;;;;;5053116;28;20024;-72
2022/10/09 00:13:33;;;;;;;1999.90;999.90;;;12.30;99.90;;;;;;5053590;28;20036;-72
2022/10/09 00:16:03;;;;;;;1999.90;999.90;;;12.30;99.90;;;;;;5053921;28;20048;-79
2022/10/09 00:18:29;;;;;;;1999.90;999.90;;;12.30;99.90;;;;;;5053426;28;20388;-73
2022/10/09 00:20:54;;;;;;;1999.90;999.90;;;12.30;99.90;;;;;;5053502;28;20055;-78
2022/10/09 00:23:20;;;;;;;1999.90;999.90;;;12.30;99.90;;;;;;5053628;28;20033;-79
2022/10/09 00:25:58;;;;;;;1999.90;999.90;;;12.20;99.90;;;;;;5053578;28;20124;-73
2022/10/09 00:28:26;;;;;;;1999.90;999.90;;;12.20;99.90;;;;;;5052282;28;20037;-73
2022/10/09 00:30:52;;;;;;;1999.90;999.90;;;12.20;99.90;;;;;;5053320;28;20419;-79
2022/10/09 00:33:19;;;;;;;1999.90;999.90;;;12.10;99.90;;;;;;5052871;28;20115;-79
2022/10/09 00:35:45;;;;;;;1999.90;999.90;;;12.10;99.90;;;;;;5036108;28;20044;-73
2022/10/09 00:38:11;;;;;;;1999.90;999.90;;;12.10;99.90;;;;;;5033427;28;20036;-73
2022/10/09 00:40:37;;;;;;;1999.90;999.90;;;12.10;99.90;;;;;;5051605;28;20025;-79
2022/10/09 00:43:05;;;;;;;1999.90;999.90;;;12.10;99.90;;;;;;5053257;28;20036;-79
2022/10/09 00:45:31;;;;;;;1999.90;999.90;;;12.00;99.90;;;;;;5053298;28;20053;-79
2022/10/09 00:48:00;;;;;;;1999.90;999.90;;;12.00;99.90;;;;;;5053248;28;20052;-79
2022/10/09 00:50:45;;;;;;;1999.90;999.90;;;12.10;99.90;;;;;;5052908;28;20535;-77
2022/10/09 00:53:15;;;;;;;1999.90;999.90;;;12.00;99.90;;;;;;5053328;28;20024;-79
2022/10/09 00:55:42;;;;;;;1999.90;999.90;;;12.00;99.90;;;;;;5053101;28;20086;-79
2022/10/09 00:58:09;;;;;;;1999.90;999.90;;;12.00;99.90;;;;;;5051840;28;20029;-79
2022/10/09 01:00:34;;;;;;;1999.90;999.90;;;11.90;99.90;;;;;;5053383;28;20031;-79
2022/10/09 01:03:00;;;;;;;1999.90;999.90;;;11.90;99.90;;;;;;5053153;28;20029;-72
2022/10/09 01:05:36;;;;;;;1999.90;999.90;;;11.90;99.90;;;;;;5052769;28;20025;-73
2022/10/09 01:08:21;;;;;;;1999.90;999.90;;;11.80;99.90;;;;;;5053049;28;20029;-73
2022/10/09 01:11:19;;;;;;;1999.90;999.90;;;11.80;99.90;;;;;;5052590;28;20016;-72
2022/10/09 01:14:01;;;;;;;1999.90;999.90;;;11.70;99.90;;;;;;5043663;28;20037;-72
2022/10/09 01:16:32;;;;;;;1999.90;999.90;;;11.60;99.90;;;;;;5052991;28;20029;-79
2022/10/09 01:19:15;;;;;;;1999.90;999.90;;;11.60;99.90;;;;;;5051721;28;20066;-73
2022/10/09 01:21:46;;;;;;;1999.90;999.90;;;11.60;99.90;;;;;;5052693;28;20198;-79
2022/10/09 01:24:39;;;;;;;1999.90;999.90;;;11.60;99.90;;;;;;5052509;28;20044;-79
2022/10/09 01:27:23;;;;;;;1999.90;999.90;;;11.50;99.90;;;;;;5051674;28;20048;-79
2022/10/09 01:29:54;;;;;;;1999.90;999.90;;;11.40;99.90;;;;;;5050837;28;20056;-73
2022/10/09 01:32:26;;;;;;;1999.90;999.90;;;11.30;99.90;;;;;;5050711;28;20033;-79
2022/10/09 01:34:52;;;;;;;1999.90;999.90;;;11.20;99.90;;;;;;5042925;28;20388;-73
2022/10/09 01:37:20;;;;;;;1999.90;999.90;;;11.10;99.90;;;;;;5032582;28;20026;-79
2022/10/09 01:39:47;;;;;;;1999.90;999.90;;;11.10;99.90;;;;;;5043402;28;20024;-78
2022/10/09 01:42:14;;;;;;;1999.90;999.90;;;11.00;99.90;;;;;;5052566;28;20078;-78
2022/10/09 01:44:40;;;;;;;1999.90;999.90;;;11.00;99.90;;;;;;5052692;28;20037;-72
2022/10/09 01:47:08;;;;;;;1999.90;999.90;;;10.90;99.90;;;;;;5052627;28;20400;-73
2022/10/09 01:50:10;;;;;;;1999.90;999.90;;;10.80;99.90;;;;;;5052072;28;20548;-79
2022/10/09 01:53:05;;;;;;;1999.90;999.90;;;10.80;99.90;;;;;;5032528;28;20040;-79
2022/10/09 01:55:53;;;;;;;1999.90;999.90;;;10.80;99.90;;;;;;5031675;28;20022;-79
2022/10/09 01:58:19;;;;;;;1999.90;999.90;;;10.90;99.90;;;;;;5032415;28;20022;-72
2022/10/09 02:01:00;;;;;;;1999.90;999.90;;;10.90;99.90;;;;;;5032498;28;20025;-79
2022/10/09 02:03:27;;;;;;;1999.90;999.90;;;11.00;99.90;;;;;;5032289;28;20112;-79
2022/10/09 02:05:55;;;;;;;1999.90;999.90;;;11.00;99.90;;;;;;5031944;28;20072;-79
2022/10/09 02:08:23;;;;;;;1999.90;999.90;;;11.10;99.90;;;;;;5032319;28;20025;-72
2022/10/09 02:10:52;;;;;;;1999.90;999.90;;;11.00;99.90;;;;;;5041038;28;20043;-79
2022/10/09 02:13:19;;;;;;;1999.90;999.90;;;11.00;99.90;;;;;;5051888;28;20025;-72
2022/10/09 02:15:54;;;;;;;1999.90;999.90;;;10.90;99.90;;;;;;5051994;28;20028;-79
2022/10/09 02:18:36;;;;;;;1999.90;999.90;;;10.80;99.90;;;;;;5051994;28;20037;-72
2022/10/09 02:21:09;;;;;;;1999.90;999.90;;;10.70;99.90;;;;;;5051651;28;20024;-72
2022/10/09 02:23:37;;;;;;;1999.90;999.90;;;10.60;99.90;;;;;;5051811;28;20064;-73
2022/10/09 02:26:03;;;;;;;1999.90;999.90;;;10.60;99.90;;;;;;5051932;28;20104;-72
2022/10/09 02:28:29;;;;;;;1999.90;999.90;;;10.60;99.90;;;;;;5051968;28;20433;-79
2022/10/09 02:31:22;;;;;;;1999.90;999.90;;;10.60;99.90;;;;;;5051338;28;20072;-79
2022/10/09 02:33:59;;;;;;;1999.90;999.90;;;10.50;99.90;;;;;;5048612;28;20029;-73
2022/10/09 02:36:25;;;;;;;1999.90;999.90;;;10.50;99.90;;;;;;5031266;28;20744;-79
2022/10/09 02:38:53;;;;;;;1999.90;999.90;;;10.50;99.90;;;;;;5034258;28;20423;-79
2022/10/09 02:41:19;;;;;;;1999.90;999.90;;;10.50;99.90;;;;;;5051660;28;20025;-79
2022/10/09 02:43:44;;;;;;;1999.90;999.90;;;10.50;99.90;;;;;;5051891;28;20025;-72
2022/10/09 02:46:10;;;;;;;1999.90;999.90;;;10.50;99.90;;;;;;5051670;28;20021;-73
2022/10/09 02:48:35;;;;;;;1999.90;999.90;;;10.60;99.90;;;;;;5051771;28;20029;-72
2022/10/09 02:51:01;;;;;;;1999.90;999.90;;;10.60;99.90;;;;;;5051441;28;20021;-72
2022/10/09 02:53:27;;;;;;;1999.90;999.90;;;10.60;99.90;;;;;;5051868;28;20029;-79
2022/10/09 02:55:52;;;;;;;1999.90;999.90;;;10.60;99.90;;;;;;5051766;28;20025;-79
2022/10/09 02:58:18;;;;;;;1999.90;999.90;;;10.60;99.90;;;;;;5051714;28;20025;-73
2022/10/09 03:00:51;;;;;;;1999.90;999.90;;;10.60;99.90;;;;;;5051874;28;20029;-73
2022/10/09 03:03:17;;;;;;;1999.90;999.90;;;10.60;99.90;;;;;;5051783;28;20052;-78
2022/10/09 03:05:46;;;;;;;1999.90;999.90;;;10.60;99.90;;;;;;5051288;28;20025;-79
2022/10/09 03:08:12;;;;;;;1999.90;999.90;;;10.60;99.90;;;;;;5053909;28;20392;-73
2022/10/09 03:10:39;;;;;;;1999.90;999.90;;;10.60;99.90;;;;;;5054825;28;20082;-79
2022/10/09 03:13:05;;;;;;;1999.90;999.90;;;10.70;99.90;;;;;;5040359;28;20035;-79
2022/10/09 03:15:34;;;;;;;1999.90;999.90;;;10.70;99.90;;;;;;5054843;28;20029;-72
2022/10/09 03:18:00;;;;;;;1999.90;999.90;;;10.70;99.90;;;;;;5055253;28;20067;-79
2022/10/09 03:20:28;;;;;;;1999.90;999.90;;;10.70;99.90;;;;;;5054743;28;20087;-79
2022/10/09 03:22:55;;;;;;;1999.90;999.90;;;10.60;99.90;;;;;;5055202;28;20079;-79
2022/10/09 03:25:21;;;;;;;1999.90;999.90;;;10.60;99.90;;;;;;5054693;28;20488;-73
2022/10/09 03:27:46;;;;;;;1999.90;999.90;;;10.60;99.90;;;;;;5054688;28;20074;-73
2022/10/09 03:30:12;;;;;;;1999.90;999.90;;;10.50;99.90;;;;;;5053470;28;20574;-79
2022/10/09 03:32:38;;;;;;;1999.90;999.90;;;10.50;99.90;;;;;;5054579;28;20032;-73
2022/10/09 03:35:08;;;;;;;1999.90;999.90;;;10.40;99.90;;;;;;5052548;28;20025;-79
2022/10/09 03:37:33;;;;;;;1999.90;999.90;;;10.40;99.90;;;;;;5054369;28;20078;-77
2022/10/09 03:39:59;;;;;;;1999.90;999.90;;;10.40;99.90;;;;;;5054606;28;20036;-79
2022/10/09 03:42:25;;;;;;;1999.90;999.90;;;10.30;99.90;;;;;;5054641;28;20471;-79
2022/10/09 03:44:50;;;;;;;1999.90;999.90;;;10.30;99.90;;;;;;5054908;28;20029;-79
2022/10/09 03:47:16;;;;;;;1999.90;999.90;;;10.30;99.90;;;;;;5054420;28;20040;-79
2022/10/09 03:49:42;;;;;;;1999.90;999.90;;;10.40;99.90;;;;;;5053505;28;20021;-79
2022/10/09 03:52:07;;;;;;;1999.90;999.90;;;10.30;99.90;;;;;;5053797;28;20021;-73
2022/10/09 03:54:33;;;;;;;1999.90;999.90;;;10.30;99.90;;;;;;5054702;28;20095;-72
2022/10/09 03:56:59;;;;;;;1999.90;999.90;;;10.30;99.90;;;;;;5054533;28;20028;-79
2022/10/09 03:59:24;;;;;;;1999.90;999.90;;;10.30;99.90;;;;;;5054311;28;20029;-79
2022/10/09 04:01:50;;;;;;;1999.90;999.90;;;10.20;99.90;;;;;;5054094;28;20075;-79
2022/10/09 04:04:16;;;;;;;1999.90;999.90;;;10.20;99.90;;;;;;5052689;28;20492;-73
2022/10/09 04:06:42;;;;;;;1999.90;999.90;;;10.20;99.90;;;;;;5053050;28;20036;-72
2022/10/09 04:09:08;;;;;;;1999.90;999.90;;;10.20;99.90;;;;;;5052856;28;20029;-79
2022/10/09 04:11:34;;;;;;;1999.90;999.90;;;10.20;99.90;;;;;;5051014;28;20064;-73
2022/10/09 04:13:59;;;;;;;1999.90;999.90;;;10.20;99.90;;;;;;5034018;28;20037;-73
2022/10/09 04:16:25;;;;;;;1999.90;999.90;;;10.20;99.90;;;;;;5033530;28;20060;-79
2022/10/09 04:18:51;;;;;;;1999.90;999.90;;;10.10;99.90;;;;;;5046884;28;20513;-72
2022/10/09 04:21:16;;;;;;;1999.90;999.90;;;10.10;99.90;;;;;;5053652;28;20370;-73
2022/10/09 04:23:42;;;;;;;1999.90;999.90;;;10.10;99.90;;;;;;5053804;28;20035;-79
2022/10/09 04:26:10;;;;;;;1999.90;999.90;;;10.10;99.90;;;;;;5053896;28;20028;-79
2022/10/09 04:28:36;;;;;;;1999.90;999.90;;;10.10;99.90;;;;;;5053244;28;20040;-73
2022/10/09 04:31:02;;;;;;;1999.90;999.90;;;10.10;99.90;;;;;;5053803;28;20563;-72
2022/10/09 04:33:28;;;;;;;1999.90;999.90;;;10.00;99.90;;;;;;5053672;28;20037;-79
2022/10/09 04:35:54;;;;;;;1999.90;999.90;;;10.00;99.90;;;;;;5052513;28;20067;-74
2022/10/09 04:38:20;;;;;;;1999.90;999.90;;;10.00;99.90;;;;;;5053244;28;20090;-73
2022/10/09 04:41:04;;;;;;;1999.90;999.90;;;9.90;99.90;;;;;;5053593;28;20475;-79
2022/10/09 04:43:32;;;;;;;1999.90;999.90;;;9.90;99.90;;;;;;5053382;28;20036;-79
2022/10/09 04:45:57;;;;;;;1999.90;999.90;;;9.90;99.90;;;;;;5053303;28;20031;-73
2022/10/09 04:48:23;;;;;;;1999.90;999.90;;;9.80;99.90;;;;;;5052468;28;20033;-79
2022/10/09 04:50:49;;;;;;;1999.90;999.90;;;9.80;99.90;;;;;;5053241;28;20029;-79
2022/10/09 04:53:15;;;;;;;1999.90;999.90;;;9.80;99.90;;;;;;5053469;28;20134;-79
2022/10/09 04:55:42;;;;;;;1999.90;999.90;;;9.80;99.90;;;;;;5053241;28;20035;-73
2022/10/09 04:58:09;;;;;;;1999.90;999.90;;;9.70;99.90;;;;;;5053092;28;20539;-73
2022/10/09 05:00:40;;;;;;;1999.90;999.90;;;9.70;99.90;;;;;;5053212;28;20033;-79
2022/10/09 05:03:05;;;;;;;1999.90;999.90;;;9.70;99.90;;;;;;5053235;28;20021;-79
2022/10/09 05:05:32;;;;;;;1999.90;999.90;;;9.70;99.90;;;;;;5052628;28;20147;-79
2022/10/09 05:07:57;;;;;;;1999.90;999.90;;;9.70;99.90;;;;;;5052650;28;20029;-78
2022/10/09 05:10:23;;;;;;;1999.90;999.90;;;9.70;99.90;;;;;;5052730;28;20044;-79
2022/10/09 05:12:49;;;;;;;1999.90;999.90;;;9.70;99.90;;;;;;5039504;28;20076;-73
2022/10/09 05:15:14;;;;;;;1999.90;999.90;;;9.70;99.90;;;;;;5033153;28;20025;-79
2022/10/09 05:17:40;;;;;;;1999.90;999.90;;;9.70;99.90;;;;;;5036668;28;20025;-79
2022/10/09 05:20:06;;;;;;;1999.90;999.90;;;9.70;99.90;;;;;;5051773;28;20522;-79
2022/10/09 05:22:32;;;;;;;1999.90;999.90;;;9.70;99.90;;;;;;5052692;28;20071;-73
2022/10/09 05:24:57;;;;;;;1999.90;999.90;;;9.70;99.90;;;;;;5052897;28;20083;-73
2022/10/09 05:27:23;;;;;;;1999.90;999.90;;;9.70;99.90;;;;;;5051553;28;20388;-79
2022/10/09 05:29:48;;;;;;;1999.90;999.90;;;9.60;99.90;;;;;;5050592;28;20036;-79
2022/10/09 05:32:14;;;;;;;1999.90;999.90;;;9.60;99.90;;;;;;5052329;28;20025;-79
2022/10/09 05:34:39;;;;;;;1999.90;999.90;;;9.60;99.90;;;;;;5052468;28;20020;-73
2022/10/09 05:37:05;;;;;;;1999.90;999.90;;;9.60;99.90;;;;;;5034711;28;20076;-73
2022/10/09 05:39:31;;;;;;;1999.90;999.90;;;9.60;99.90;;;;;;5041344;28;20021;-72
2022/10/09 05:41:57;;;;;;;1999.90;999.90;;;9.60;99.90;;;;;;5052379;28;20152;-78
2022/10/09 05:44:23;;;;;;;1999.90;999.90;;;9.50;99.90;;;;;;5052598;28;20029;-79
2022/10/09 05:46:48;;;;;;;1999.90;999.90;;;9.50;99.90;;;;;;5052501;28;20078;-79
2022/10/09 05:49:14;;;;;;;1999.90;999.90;;;9.60;99.90;;;;;;5051651;28;20503;-79
2022/10/09 05:51:43;;;;;;;1999.90;999.90;;;9.50;99.90;;;;;;5034779;28;20030;-72
2022/10/09 05:54:13;;;;;;;1999.90;999.90;;;9.50;99.90;;;;;;5032417;28;20071;-78
2022/10/09 05:56:38;;;;;;;1999.90;999.90;;;9.50;99.90;;;;;;5032790;28;20017;-79
2022/10/09 05:59:07;;;;;;;1999.90;999.90;;;9.50;99.90;;;;;;5032540;28;20029;-72
2022/10/09 06:01:38;;;;;;;1999.90;999.90;;;9.40;99.90;;;;;;5032100;28;20384;-73
2022/10/09 06:04:05;;;;;;;1999.90;999.90;;;9.30;99.90;;;;;;5031985;28;20143;-73
2022/10/09 06:06:32;;;;;;;1999.90;999.90;;;9.30;99.90;;;;;;5032492;28;20030;-72
2022/10/09 06:08:58;;;;;;;1999.90;999.90;;;9.30;99.90;;;;;;5044288;28;20075;-79
2022/10/09 06:11:27;;;;;;;1999.90;999.90;;;9.30;99.90;;;;;;5052188;28;20027;-79
2022/10/09 06:13:54;;;;;;;1999.90;999.90;;;9.30;99.90;;;;;;5051792;28;20028;-78
2022/10/09 06:16:22;;;;;;;1999.90;999.90;;;9.30;99.90;;;;;;5052111;28;20387;-73
2022/10/09 06:18:47;;;;;;;1999.90;999.90;;;9.30;99.90;;;;;;5052066;28;20116;-79
2022/10/09 06:21:14;;;;;;;1999.90;999.90;;;9.30;99.90;;;;;;5051953;28;20120;-79
2022/10/09 06:23:40;;;;;;;1999.90;999.90;;;9.30;99.90;;;;;;5052025;28;20039;-79
2022/10/09 06:26:09;;;;;;;1999.90;999.90;;;9.30;99.90;;;;;;5052101;28;20033;-79
2022/10/09 06:28:35;;;;;;;1999.90;999.90;;;9.30;99.90;;;;;;5051382;28;20222;-79
2022/10/09 06:31:04;;;;;;;1999.90;999.90;;;9.30;99.90;;;;;;5052099;28;20508;-72
2022/10/09 06:33:31;;;;;;;1999.90;999.90;;;9.30;99.90;;;;;;5051875;28;20029;-78
2022/10/09 06:36:01;;;;;;;1999.90;999.90;;;9.30;99.90;;;;;;5051324;28;20480;-79
2022/10/09 06:38:27;;;;;;;1999.90;999.90;;;9.40;99.90;;;;;;5051404;28;20021;-79
2022/10/09 06:40:52;;;;;;;1999.90;999.90;;;9.40;99.90;;;;;;5052505;28;20078;-78
2022/10/09 06:43:18;;;;;;;1999.90;999.90;;;9.40;99.90;;;;;;5056055;28;20071;-79
2022/10/09 06:45:43;;;;;;;1999.90;999.90;;;9.40;99.90;;;;;;5055432;28;20547;-79
2022/10/09 06:48:09;;;;;;;1999.90;999.90;;;9.40;99.90;;;;;;5055242;28;20116;-79
2022/10/09 06:50:36;;;;;;;1999.90;999.90;;;9.50;99.90;;;;;;5046823;28;20021;-73
2022/10/09 06:53:03;;;;;;;1999.90;999.90;;;9.60;99.90;;;;;;5035716;28;20029;-79
2022/10/09 06:55:29;;;;;;;1999.90;999.90;;;9.60;99.90;;;;;;5035403;28;20053;-73
2022/10/09 06:57:55;;;;;;;1999.90;999.90;;;9.70;99.90;;;;;;5035461;28;20057;-78
2022/10/09 07:00:21;;;;;;;1999.90;999.90;;;9.70;99.90;;;;;;5035380;28;20480;-79
2022/10/09 07:02:46;;;;;;;1999.90;999.90;;;9.80;99.90;;;;;;5035504;28;20030;-79
2022/10/09 07:05:12;;;;;;;1999.90;999.90;;;9.80;99.90;;;;;;5035130;28;20108;-79
2022/10/09 07:07:41;;;;;;;1999.90;999.90;;;9.90;99.90;;;;;;5041646;28;20025;-72
2022/10/09 07:10:08;;;;;;;1999.90;999.90;;;10.00;99.90;;;;;;5055076;28;20025;-78
2022/10/09 07:12:36;;;;;;;1999.90;999.90;;;10.00;99.90;;;;;;5055013;28;20025;-79
2022/10/09 07:15:05;;;;;;;1999.90;999.90;;;10.10;99.90;;;;;;5055271;28;20452;-79
2022/10/09 07:17:31;;;;;;;1999.90;999.90;;;10.20;99.90;;;;;;5055008;28;20103;-78
2022/10/09 07:19:56;;;;;;;1999.90;999.90;;;10.40;99.90;;;;;;5054167;28;20060;-72
2022/10/09 07:22:22;;;;;;;1999.90;999.90;;;10.50;99.90;;;;;;5053653;28;20047;-79
2022/10/09 07:24:49;;;;;;;1999.90;999.90;;;10.60;99.90;;;;;;5055012;28;20021;-79
2022/10/09 07:27:15;;;;;;;1999.90;999.90;;;10.70;99.90;;;;;;5047561;28;20025;-79
2022/10/09 07:29:41;;;;;;;1999.90;999.90;;;11.00;99.90;;;;;;5054416;28;20053;-73
2022/10/09 07:32:07;;;;;;;1999.90;999.90;;;11.50;99.90;;;;;;5054612;28;20067;-79
2022/10/09 07:34:32;;;;;;;1999.90;999.90;;;12.40;99.90;;;;;;5053410;28;20025;-72
2022/10/09 07:36:58;;;;;;;1999.90;999.90;;;13.60;99.90;;;;;;5053232;28;20025;-73
2022/10/09 07:39:23;;;;;;;1999.90;999.90;;;14.40;99.90;;;;;;5054719;28;20021;-73
2022/10/09 07:41:50;;;;;;;1999.90;999.90;;;13.90;99.90;;;;;;5054636;28;20552;-79
2022/10/09 07:44:17;;;;;;;1999.90;999.90;;;13.00;99.90;;;;;;5054454;28;20049;-79
2022/10/09 07:46:43;;;;;;;1999.90;999.90;;;12.60;99.90;;;;;;5053951;28;20112;-73
2022/10/09 07:49:09;;;;;;;1999.90;999.90;;;12.30;99.90;;;;;;5054370;28;20078;-73
2022/10/09 07:51:35;;;;;;;1999.90;999.90;;;12.30;99.90;;;;;;5044142;28;20033;-79
2022/10/09 07:54:01;;;;;;;1999.90;999.90;;;12.30;99.90;;;;;;5033615;28;20028;-79
2022/10/09 07:56:29;;;;;;;1999.90;999.90;;;12.30;99.90;;;;;;5034565;28;20032;-73
2022/10/09 07:58:58;;;;;;;1999.90;999.90;;;12.30;99.90;;;;;;5034590;28;20025;-73
2022/10/09 08:01:26;;;;;;;1999.90;999.90;;;12.50;99.90;;;;;;5033089;28;20548;-73
2022/10/09 08:03:52;;;;;;;1999.90;999.90;;;12.60;99.90;;;;;;5034457;28;20026;-79
2022/10/09 08:06:19;;;;;;;1999.90;999.90;;;12.90;99.90;;;;;;5034176;28;20021;-79
2022/10/09 08:08:48;;;;;;;1999.90;999.90;;;13.30;99.90;;;;;;5053404;28;20013;-73
2022/10/09 08:11:15;;;;;;;1999.90;999.90;;;14.90;99.90;;;;;;5054225;28;20028;-73
2022/10/09 08:13:41;;;;;;;1999.90;999.90;;;16.70;99.90;;;;;;5053889;28;20488;-73
2022/10/09 08:16:07;;;;;;;1999.90;999.90;;;17.60;99.90;;;;;;5053960;28;20025;-73
2022/10/09 08:18:34;;;;;;;1999.90;999.90;;;17.20;99.90;;;;;;5053686;28;20029;-79
2022/10/09 08:21:09;;;;;;;1999.90;999.90;;;17.00;99.90;;;;;;5053677;28;20472;-79
2022/10/09 08:23:35;;;;;;;1999.90;999.90;;;17.30;99.90;;;;;;5053788;28;20025;-80
2022/10/09 08:26:01;;;;;;;1999.90;999.90;;;18.40;99.90;;;;;;5053664;28;20035;-79
2022/10/09 08:28:26;;;;;;;1999.90;999.90;;;18.90;99.90;;;;;;5049424;28;20115;-80
2022/10/09 08:30:52;;;;;;;1999.90;999.90;;;18.40;99.90;;;;;;5052485;28;20099;-79
2022/10/09 08:33:20;;;;;;;1999.90;999.90;;;17.70;99.90;;;;;;5053678;28;20031;-73
2022/10/09 08:35:50;;;;;;;1999.90;999.90;;;17.30;99.90;;;;;;5053440;28;20029;-80
2022/10/09 08:38:15;;;;;;;1999.90;999.90;;;17.30;99.90;;;;;;5052622;28;20240;-73
2022/10/09 08:40:41;;;;;;;1999.90;999.90;;;17.10;99.90;;;;;;5053689;28;20399;-80
2022/10/09 08:43:12;;;;;;;1999.90;999.90;;;17.10;99.90;;;;;;5053833;28;20021;-79
2022/10/09 08:45:39;;;;;;;1999.90;999.90;;;17.00;99.90;;;;;;5053406;28;20116;-80
2022/10/09 08:48:11;;;;;;;1999.90;999.90;;;17.50;99.90;;;;;;5053363;28;20024;-79
2022/10/09 08:50:40;;;;;;;1999.90;999.90;;;18.10;99.90;;;;;;5050454;28;20100;-80
2022/10/09 08:53:38;;;;;;;1999.90;999.90;;;19.00;99.90;;;;;;5033570;28;20473;-79
2022/10/09 08:56:09;;;;;;;1999.90;999.90;;;19.20;99.90;;;;;;5033262;28;20022;-79
2022/10/09 08:58:38;;;;;;;1999.90;999.90;;;19.20;99.90;;;;;;5033447;28;20029;-80
2022/10/09 09:01:28;;;;;;;1999.90;999.90;;;19.10;99.90;;;;;;5033838;28;20013;-73
2022/10/09 09:03:56;;;;;;;1999.90;999.90;;;18.90;99.90;;;;;;5032972;28;20037;-73
2022/10/09 09:06:50;;;;;;;1999.90;999.90;;;18.60;99.90;;;;;;5033110;28;20057;-80
2022/10/09 09:09:29;;;;;;;1999.90;999.90;;;18.40;99.90;;;;;;5036108;28;20067;-79
2022/10/09 09:12:15;;;;;;;1999.90;999.90;;;18.90;99.90;;;;;;5052786;28;20025;-80
2022/10/09 09:15:16;;;;;;;1999.90;999.90;;;19.70;99.90;;;;;;5053152;28;20108;-80
2022/10/09 09:17:47;;;;;;;1999.90;999.90;;;20.00;99.90;;;;;;5044935;28;20032;-80
2022/10/09 09:20:31;;;;;;;1999.90;999.90;;;19.80;99.90;;;;;;5052515;28;20396;-74
2022/10/09 09:23:00;;;;;;;1999.90;999.90;;;19.50;99.90;;;;;;5053335;28;20037;-80
2022/10/09 09:25:29;;;;;;;1999.90;999.90;;;19.50;99.90;;;;;;5052711;28;20045;-80
2022/10/09 09:28:28;;;;;;;1999.90;999.90;;;19.20;99.90;;;;;;5053835;28;20550;-80
2022/10/09 09:31:02;;;;;;;1999.90;999.90;;;19.00;99.90;;;;;;5042677;28;20056;-73
2022/10/09 09:34:04;;;;;;;1999.90;999.90;;;18.60;99.90;;;;;;5053397;28;20044;-74
2022/10/09 09:37:04;;;;;;;1999.90;999.90;;;18.50;99.90;;;;;;5049568;28;20048;-80
2022/10/09 09:39:32;;;;;;;1999.90;999.90;;;18.10;99.90;;;;;;5050311;28;20037;-80
2022/10/09 09:42:06;;;;;;;1999.90;999.90;;;17.80;99.90;;;;;;5052265;28;20025;-73
2022/10/09 09:44:33;;;;;;;1999.90;999.90;;;17.70;99.90;;;;;;5052482;28;20203;-73
2022/10/09 09:46:59;;;;;;;1999.90;999.90;;;17.80;99.90;;;;;;5052985;28;20094;-79
2022/10/09 09:49:27;;;;;;;1999.90;999.90;;;18.10;99.90;;;;;;5051369;28;20443;-80
2022/10/09 09:51:55;;;;;;;1999.90;999.90;;;18.20;99.90;;;;;;5039899;28;20716;-80
2022/10/09 09:54:27;;;;;;;1999.90;999.90;;;18.30;99.90;;;;;;5032580;28;20079;-81
2022/10/09 09:56:56;;;;;;;1999.90;999.90;;;18.40;99.90;;;;;;5031442;28;20124;-81
2022/10/09 09:59:42;;;;;;;1999.90;999.90;;;18.50;99.90;;;;;;5031765;28;20483;-80
2022/10/09 10:02:12;;;;;;;1999.90;999.90;;;18.50;99.90;;;;;;5032465;28;20018;-80
2022/10/09 10:04:48;;;;;;;1999.90;999.90;;;18.70;99.90;;;;;;5032183;28;20033;-73
2022/10/09 10:07:13;;;;;;;1999.90;999.90;;;18.80;99.90;;;;;;5032206;28;20021;-80
2022/10/09 10:09:39;;;;;;;1999.90;999.90;;;18.80;99.90;;;;;;5042376;28;20069;-80
2022/10/09 10:12:05;;;;;;;1999.90;999.90;;;18.80;99.90;;;;;;5051299;28;20108;-80
2022/10/09 10:14:33;;;;;;;1999.90;999.90;;;19.00;99.90;;;;;;5052199;28;20040;-80
2022/10/09 10:16:59;;;;;;;1999.90;999.90;;;19.20;99.90;;;;;;5054971;28;20067;-79
2022/10/09 10:19:30;;;;;;;1999.90;999.90;;;19.40;99.90;;;;;;5055178;28;20434;-80
2022/10/09 10:21:59;;;;;;;1999.90;999.90;;;19.30;99.90;;;;;;5055823;28;20064;-74
2022/10/09 10:24:34;;;;;;;1999.90;999.90;;;19.30;99.90;;;;;;5056065;28;20048;-74
2022/10/09 10:27:28;;;;;;;1999.90;999.90;;;19.20;99.90;;;;;;5056429;28;20104;-80
2022/10/09 10:29:59;;;;;;;1999.90;999.90;;;19.40;99.90;;;;;;5035889;28;20522;-80
2022/10/09 10:32:38;;;;;;;1999.90;999.90;;;19.50;99.90;;;;;;5053159;28;20048;-73
2022/10/09 10:35:13;;;;;;;1999.90;999.90;;;19.70;99.90;;;;;;5055918;28;20017;-73
2022/10/09 10:37:42;;;;;;;1999.90;999.90;;;19.80;99.90;;;;;;5055698;28;20082;-80
2022/10/09 10:40:20;;;;;;;1999.90;999.90;;;19.90;99.90;;;;;;5055194;28;20096;-73
2022/10/09 10:42:52;;;;;;;1999.90;999.90;;;20.00;99.90;;;;;;5055901;28;20403;-80
2022/10/09 10:45:27;;;;;;;1999.90;999.90;;;20.00;99.90;;;;;;5055754;28;20048;-80
2022/10/09 10:47:55;;;;;;;1999.90;999.90;;;20.20;99.90;;;;;;5055687;28;20024;-73
2022/10/09 10:50:21;;;;;;;1999.90;999.90;;;20.00;99.90;;;;;;5053809;28;20056;-80
2022/10/09 10:53:18;;;;;;;1999.90;999.90;;;20.00;99.90;;;;;;5040388;28;20099;-80
2022/10/09 10:55:52;;;;;;;1999.90;999.90;;;20.30;99.90;;;;;;5055546;28;20431;-80
2022/10/09 10:58:24;;;;;;;1999.90;999.90;;;20.40;99.90;;;;;;5055558;28;20047;-80
2022/10/09 11:01:02;;;;;;;1999.90;999.90;;;20.50;99.90;;;;;;5055744;28;20107;-73
2022/10/09 11:03:42;;;;;;;1999.90;999.90;;;20.60;99.90;;;;;;5055635;28;20029;-80
2022/10/09 11:06:39;;;;;;;1999.90;999.90;;;20.80;99.90;;;;;;5055061;28;20020;-80
2022/10/09 11:09:26;;;;;;;1999.90;999.90;;;20.90;99.90;;;;;;5055611;28;20053;-80
2022/10/09 11:11:57;;;;;;;1999.90;999.90;;;21.00;99.90;;;;;;5054999;28;20032;-80
2022/10/09 11:15:00;;;;;;;1999.90;999.90;;;21.20;99.90;;;;;;5054533;28;20462;-81
2022/10/09 11:18:00;;;;;;;1999.90;999.90;;;21.30;99.90;;;;;;5047499;28;20033;-81
2022/10/09 11:20:26;;;;;;;1999.90;999.90;;;21.30;99.90;;;;;;5053637;28;20045;-73
2022/10/09 11:22:58;;;;;;;1999.90;999.90;;;21.50;99.90;;;;;;5055147;28;20021;-74
2022/10/09 11:25:38;;;;;;;1999.90;999.90;;;21.60;99.90;;;;;;5054931;28;20395;-80
2022/10/09 11:28:17;;;;;;;1999.90;999.90;;;21.70;99.90;;;;;;5053575;28;20057;-80
2022/10/09 11:30:50;;;;;;;1999.90;999.90;;;22.00;99.90;;;;;;5054978;28;20179;-80
2022/10/09 11:33:15;;;;;;;1999.90;999.90;;;22.20;99.90;;;;;;5054887;28;20029;-80
2022/10/09 11:35:50;;;;;;;1999.90;999.90;;;22.30;99.90;;;;;;5054385;28;20036;-81
2022/10/09 11:38:25;;;;;;;1999.90;999.90;;;22.40;99.90;;;;;;5053761;28;20025;-81
2022/10/09 11:40:51;;;;;;;1999.90;999.90;;;21.90;99.90;;;;;;5054279;28;20503;-81
2022/10/09 11:43:27;;;;;;;1999.90;999.90;;;22.00;99.90;;;;;;5054696;28;20066;-80
2022/10/09 11:46:01;;;;;;;1999.90;999.90;;;22.00;99.90;;;;;;5054687;28;20507;-81
2022/10/09 11:48:41;;;;;;;1999.90;999.90;;;22.40;99.90;;;;;;5053210;28;20442;-81
2022/10/09 11:51:30;;;;;;;1999.90;999.90;;;22.50;99.90;;;;;;5049268;28;20514;-80
2022/10/09 11:53:57;;;;;;;1999.90;999.90;;;22.80;99.90;;;;;;5034485;28;20040;-73
2022/10/09 11:56:28;;;;;;;1999.90;999.90;;;22.90;99.90;;;;;;5034537;28;20100;-81
2022/10/09 11:59:00;;;;;;;1999.90;999.90;;;22.90;99.90;;;;;;5043066;28;20021;-81
2022/10/09 12:01:39;;;;;;;1999.90;999.90;;;23.00;99.90;;;;;;5054636;28;20032;-81
2022/10/09 12:04:19;;;;;;;1999.90;999.90;;;22.80;99.90;;;;;;5053965;28;20076;-74
2022/10/09 12:07:03;;;;;;;1999.90;999.90;;;22.70;99.90;;;;;;5054523;28;20112;-75
2022/10/09 12:09:36;;;;;;;1999.90;999.90;;;22.90;99.90;;;;;;5054333;28;20017;-81
2022/10/09 12:12:18;;;;;;;1999.90;999.90;;;22.90;99.90;;;;;;5053818;28;20455;-74
2022/10/09 12:14:47;;;;;;;1999.90;999.90;;;23.20;99.90;;;;;;5054706;28;20021;-81
2022/10/09 12:17:21;;;;;;;1999.90;999.90;;;23.30;99.90;;;;;;5052955;28;20271;-80